Weather History for Wahoo, NE

Change the Weather History Date:

Friday, January 13, 2012

  Actual Average Record
Temperature  
Mean Temperature 20 °F -  
Max Temperature 32 °F 30 °F 62 °F (1980)
Min Temperature 7 °F 9 °F -14 °F (1964)
Degree Days  
Heating Degree Days 46    
Moisture  
Dew Point 2 °F    
Average Humidity 56    
Maximum Humidity 75    
Minimum Humidity 27    
Precipitation  
Precipitation 0.00 in - - ()
Sea Level Pressure  
Sea Level Pressure 30.04 in    
Wind  
Wind Speed 8 mph (WNW)    
Max Wind Speed 13 mph    
Max Gust Speed -    
Visibility 10 miles    
Events      
Averages and records for this station are not official NWS values.
T = Trace of Precipitation, MM = Missing Value Source: NWS Daily Summary

Daily Weather History Graph

Daily Weather History Graph

Search for Another Location

Airport:

Trip Planner

Search our weather history database for the weather conditions in past years. The results will help you decide how hot, cold, wet, or windy it might be!

Date:

Astronomy

Jan. 13, 2012 Rise Set
Actual Time 7:50 AM CST 5:19 PM CST
Civil Twilight 7:20 AM CST 5:50 PM CST
Nautical Twilight 6:45 AM CST 6:24 PM CST
Astronomical Twilight 6:12 AM CST 6:57 PM CST
Moon 10:37 PM CST (1/13) 10:02 AM CST (1/13)
Length of Visible Light 10h 29m
Length of Day
9h 28m
Waning Gibbous, 78% of the Moon is Illuminated
Jan 13
Waning Gibbous
Jan 16
Last Quarter
Jan 23
New
Jan 30
First Quarter
Feb 7
Full

Hourly Weather History & Observations

Time (CST) Temp. Windchill Dew Point Humidity Pressure Visibility Wind Dir Wind Speed Gust Speed Precip Events Conditions
12:15 AM 9.9 °F -5.5 °F 1.9 °F 70% 30.04 in 10.0 mi NW 12.7 mph - N/A   Clear
12:35 AM 9.9 °F -4.7 °F 1.6 °F 69% 30.04 in 10.0 mi WNW 11.5 mph - N/A   Clear
12:55 AM 9.3 °F -3.8 °F 1.4 °F 70% 30.04 in 10.0 mi NW 9.2 mph - N/A   Clear
1:15 AM 9.3 °F -3.8 °F 1.4 °F 70% 30.04 in 10.0 mi WNW 9.2 mph - N/A   Clear
1:35 AM 9.1 °F -3.0 °F 1.0 °F 70% 30.04 in 10.0 mi NW 8.1 mph - N/A   Clear
1:55 AM 9.1 °F -4.9 °F 1.4 °F 71% 30.04 in 10.0 mi NW 10.4 mph - N/A   Clear
2:15 AM 8.6 °F -5.5 °F 0.5 °F 70% 30.03 in 10.0 mi NNW 10.4 mph - N/A   Clear
2:35 AM 9.1 °F -4.0 °F 1.2 °F 70% 30.04 in 10.0 mi NW 9.2 mph - N/A   Clear
2:55 AM 8.8 °F -4.4 °F 1.2 °F 71% 30.04 in 10.0 mi NW 9.2 mph - N/A   Clear
3:15 AM 9.1 °F -4.0 °F 1.4 °F 71% 30.04 in 10.0 mi WNW 9.2 mph - N/A   Clear
3:35 AM 9.0 °F -5.1 °F 1.8 °F 73% 30.04 in 10.0 mi NW 10.4 mph - N/A   Clear
3:55 AM 8.6 °F -5.5 °F 1.4 °F 73% 30.03 in 10.0 mi NW 10.4 mph - N/A   Clear
4:15 AM 9.0 °F -5.1 °F 1.4 °F 71% 30.04 in 10.0 mi NW 10.4 mph - N/A   Clear
4:35 AM 8.6 °F -5.5 °F 1.4 °F 73% 30.04 in 10.0 mi NW 10.4 mph - N/A   Clear
4:55 AM 8.1 °F -4.3 °F 1.2 °F 74% 30.04 in 10.0 mi NW 8.1 mph - N/A   Clear
5:15 AM 8.2 °F -3.0 °F 1.4 °F 74% 30.04 in 10.0 mi NW 6.9 mph - N/A   Clear
5:35 AM 8.2 °F -4.1 °F 1.2 °F 73% 30.04 in 10.0 mi NW 8.1 mph - N/A   Clear
5:55 AM 7.9 °F -4.6 °F 0.9 °F 73% 30.04 in 10.0 mi NW 8.1 mph - N/A   Clear
6:15 AM 8.4 °F -2.8 °F 1.6 °F 74% 30.05 in 10.0 mi WNW 6.9 mph - N/A   Clear
6:35 AM 8.4 °F -2.8 °F 1.4 °F 73% 30.05 in 10.0 mi NW 6.9 mph - N/A   Clear
6:55 AM 7.5 °F -1.1 °F 1.0 °F 75% 30.06 in 10.0 mi NW 4.6 mph - N/A   Clear
7:15 AM 8.4 °F -3.9 °F 1.0 °F 72% 30.07 in 10.0 mi WNW 8.1 mph - N/A   Clear
7:35 AM 7.9 °F -2.2 °F 0.7 °F 72% 30.06 in 10.0 mi WNW 5.8 mph - N/A   Clear
7:55 AM 8.1 °F -4.3 °F 0.5 °F 71% 30.06 in 10.0 mi NW 8.1 mph - N/A   Clear
8:15 AM 8.2 °F -1.8 °F 1.2 °F 73% 30.07 in 10.0 mi NW 5.8 mph - N/A   Clear
8:35 AM 9.9 °F -1.1 °F 2.3 °F 71% 30.07 in 10.0 mi NW 6.9 mph - N/A   Clear
8:55 AM 11.1 °F -1.6 °F 2.1 °F 67% 30.07 in 10.0 mi NW 9.2 mph - N/A   Clear
9:15 AM 12.2 °F -0.2 °F 1.9 °F 64% 30.08 in 10.0 mi NW 9.2 mph - N/A   Clear
9:35 AM 13.1 °F 0.1 °F 1.9 °F 61% 30.09 in 10.0 mi NW 10.4 mph - N/A   Clear
9:55 AM 13.8 °F 2.7 °F 1.9 °F 59% 30.09 in 10.0 mi NW 8.1 mph - N/A   Clear
10:15 AM 15.3 °F 7.9 °F 2.5 °F 57% 30.09 in 10.0 mi WNW 4.6 mph - N/A   Clear
10:35 AM 16.2 °F 5.5 °F 1.6 °F 53% 30.09 in 10.0 mi WNW 8.1 mph - N/A   Clear
10:55 AM 17.6 °F 10.7 °F 1.6 °F 50% 30.09 in 10.0 mi WNW 4.6 mph - N/A   Clear
11:15 AM 18.5 °F 13.3 °F 0.5 °F 45% 30.08 in 10.0 mi WNW 3.5 mph - N/A   Clear
11:35 AM 20.3 °F - -0.9 °F 39% 30.07 in 10.0 mi Calm Calm - N/A   Clear
11:55 AM 21.4 °F - -0.4 °F 39% 30.06 in 10.0 mi Calm Calm - N/A   Clear
12:15 PM 23.0 °F 17.0 °F -0.9 °F 35% 30.06 in 10.0 mi West 4.6 mph - N/A   Clear
12:35 PM 24.6 °F 18.8 °F -0.0 °F 34% 30.04 in 10.0 mi SSW 4.6 mph - N/A   Clear
12:55 PM 26.2 °F 22.1 °F -1.3 °F 30% 30.04 in 10.0 mi WNW 3.5 mph - N/A   Clear
1:15 PM 27.7 °F 22.4 °F -1.1 °F 29% 30.02 in 10.0 mi WNW 4.6 mph - N/A   Clear
1:35 PM 28.2 °F 24.4 °F -1.8 °F 27% 30.02 in 10.0 mi West 3.5 mph - N/A   Clear
1:55 PM 28.4 °F 24.6 °F -2.0 °F 27% 30.02 in 10.0 mi West 3.5 mph - N/A   Clear
2:15 PM 29.8 °F 24.9 °F 1.0 °F 29% 30.00 in 10.0 mi SW 4.6 mph - N/A   Clear
2:35 PM 30.4 °F 23.6 °F 2.8 °F 31% 30.00 in 10.0 mi WSW 6.9 mph - N/A   Clear
2:55 PM 31.3 °F 24.7 °F 3.7 °F 31% 30.00 in 10.0 mi SW 6.9 mph - N/A   Clear
3:15 PM 31.3 °F 25.6 °F 4.6 °F 32% 30.00 in 10.0 mi West 5.8 mph - N/A   Clear
3:35 PM 32.0 °F 24.8 °F 5.7 °F 33% 29.99 in 10.0 mi West 8.1 mph - N/A   Clear
3:55 PM 32.0 °F 24.8 °F 7.0 °F 35% 30.00 in 10.0 mi West 8.1 mph - N/A   Clear
4:15 PM 32.0 °F 26.4 °F 8.4 °F 37% 29.99 in 10.0 mi West 5.8 mph - N/A   Scattered Clouds
4:35 PM 32.0 °F 28.7 °F 8.6 °F 38% 29.99 in 10.0 mi WNW 3.5 mph - N/A   Clear
4:55 PM 32.0 °F - 9.3 °F 39% 29.98 in 10.0 mi Calm Calm - N/A   Clear
5:15 PM 30.2 °F - 10.0 °F 43% 29.98 in 10.0 mi Calm Calm - N/A   Clear
5:35 PM 29.3 °F 25.6 °F 9.7 °F 44% 29.97 in 10.0 mi SSE 3.5 mph - N/A   Clear
5:55 PM 25.7 °F 21.5 °F 9.5 °F 50% 29.98 in 10.0 mi SSE 3.5 mph - N/A   Clear
6:15 PM 26.1 °F 19.4 °F 10.6 °F 52% 29.97 in 10.0 mi SSE 5.8 mph - N/A   Clear
6:35 PM 26.8 °F 20.2 °F 11.1 °F 52% 29.96 in 10.0 mi SSE 5.8 mph - N/A   Clear
6:55 PM 25.9 °F 18.2 °F 10.9 °F 53% 29.96 in 10.0 mi SSE 6.9 mph - N/A   Mostly Cloudy
7:15 PM 26.1 °F 19.4 °F 11.3 °F 54% 29.95 in 10.0 mi SSE 5.8 mph - N/A   Overcast
7:55 PM 27.1 °F 19.7 °F 11.3 °F 51% 29.94 in 10.0 mi SSE 6.9 mph - N/A   Overcast
8:15 PM 27.0 °F 20.5 °F 11.8 °F 53% 29.94 in 10.0 mi SSE 5.8 mph - N/A   Overcast
8:55 PM 27.5 °F 21.1 °F 12.2 °F 53% 29.92 in 10.0 mi SE 5.8 mph - N/A   Overcast
9:15 PM 27.9 °F 19.1 °F 12.2 °F 52% 29.91 in 10.0 mi SE 9.2 mph - N/A   Overcast
9:55 PM 27.5 °F 18.6 °F 12.6 °F 54% 29.89 in 10.0 mi SE 9.2 mph - N/A   Overcast
10:35 PM 27.5 °F 17.4 °F 13.1 °F 55% 29.86 in 10.0 mi SE 11.5 mph - N/A   Overcast
10:55 PM 28.0 °F 18.6 °F 13.6 °F 55% 29.85 in 10.0 mi SE 10.4 mph - N/A   Overcast
11:15 PM 28.4 °F 20.4 °F 14.0 °F 55% 29.84 in 10.0 mi ESE 8.1 mph - N/A   Overcast
11:35 PM 28.8 °F 19.5 °F 14.4 °F 55% 29.84 in 10.0 mi ESE 10.4 mph - N/A   Overcast
11:55 PM 29.1 °F 20.6 °F 14.9 °F 55% 29.83 in 10.0 mi ESE 9.2 mph - N/A   Overcast